createdAt,value
2023-03-23T16:02:25.538Z,1.07
2023-03-23T16:07:27.671Z,1.50
2023-03-23T16:12:29.625Z,1.77
2023-03-23T16:17:33.348Z,1.40
2023-03-23T16:22:35.524Z,1.13
2023-03-23T16:27:38.726Z,1.33
2023-03-23T16:37:49.492Z,1.20
2023-03-23T16:42:51.461Z,1.30
2023-03-23T16:47:55.909Z,1.30
2023-03-23T16:52:57.863Z,1.20
2023-03-23T16:58:13.157Z,1.50
2023-03-23T17:03:19.709Z,1.37
2023-03-23T17:08:21.862Z,1.33
2023-03-23T17:13:25.463Z,1.40
2023-03-23T17:18:29.078Z,1.90
2023-03-23T17:23:31.128Z,1.53
2023-03-23T17:28:33.146Z,2.00
2023-03-23T17:33:35.175Z,1.77
2023-03-23T17:38:37.184Z,1.53
2023-03-23T17:43:41.080Z,1.90
2023-03-23T17:48:43.073Z,1.63
2023-03-23T17:53:45.265Z,2.10
2023-03-23T17:58:47.107Z,3.10
2023-03-23T18:03:48.974Z,2.63
2023-03-23T18:08:50.970Z,2.70
2023-03-23T18:13:52.920Z,2.40
2023-03-23T18:18:54.874Z,3.83
2023-03-23T18:23:59.785Z,2.03
2023-03-23T18:29:02.118Z,2.00
2023-03-23T18:34:04.011Z,2.43
2023-03-23T18:39:06.203Z,2.23
2023-03-23T18:44:08.223Z,2.40
2023-03-23T18:49:10.448Z,2.60
2023-03-23T18:54:13.331Z,2.20
2023-03-23T18:59:15.619Z,2.30
2023-03-23T19:04:22.290Z,1.73
2023-03-23T19:09:24.642Z,2.10
2023-03-23T19:14:26.962Z,2.10
2023-03-23T19:19:29.109Z,2.40
2023-03-23T19:24:31.513Z,2.03
2023-03-23T19:29:33.509Z,3.67
2023-03-23T19:34:35.781Z,2.90
2023-03-23T19:39:37.732Z,3.40
2023-03-23T19:44:41.192Z,3.50
2023-03-23T19:49:43.205Z,3.07
2023-03-23T19:54:46.095Z,4.20
2023-03-23T19:59:48.367Z,2.33
2023-03-23T20:04:50.514Z,2.47
2023-03-23T20:09:52.453Z,3.07
2023-03-23T20:14:54.476Z,2.00
2023-03-23T20:19:56.672Z,2.60
2023-03-23T20:25:00.514Z,2.13
2023-03-23T20:30:04.432Z,2.10
2023-03-23T20:35:10.702Z,2.47
2023-03-23T20:40:16.684Z,2.77
2023-03-23T20:45:20.154Z,2.60
2023-03-23T20:50:22.122Z,2.70
2023-03-23T20:55:24.265Z,2.13
2023-03-23T21:00:26.591Z,2.50
2023-03-23T21:05:28.768Z,2.50
2023-03-23T21:10:30.710Z,2.33
2023-03-23T21:15:33.639Z,2.17
2023-03-23T21:20:35.838Z,2.50
2023-03-23T21:25:38.045Z,2.43
2023-03-23T21:30:45.465Z,2.70
2023-03-23T21:35:47.630Z,2.70
2023-03-23T21:40:49.731Z,2.60
2023-03-23T21:45:55.916Z,2.67
2023-03-23T21:51:04.716Z,2.90
2023-03-23T21:56:09.631Z,2.83
2023-03-23T22:01:13.008Z,2.77
2023-03-23T22:06:23.518Z,3.10
2023-03-23T22:11:27.610Z,2.80
2023-03-23T22:16:30.051Z,3.50
2023-03-23T22:21:33.130Z,3.07
2023-03-23T22:26:35.341Z,3.10
2023-03-23T22:31:39.814Z,2.97
2023-03-23T22:36:42.183Z,3.50
2023-03-23T22:41:44.662Z,3.70
2023-03-23T22:46:47.140Z,3.10
2023-03-23T22:51:49.775Z,3.93
2023-03-23T22:56:51.731Z,3.60
2023-03-23T23:01:53.678Z,3.87
2023-03-23T23:07:06.404Z,5.90
2023-03-23T23:12:14.693Z,4.50
2023-03-23T23:17:16.604Z,3.87
2023-03-23T23:22:19.562Z,3.63
2023-03-23T23:27:21.646Z,3.00
2023-03-23T23:32:24.316Z,2.90
2023-03-23T23:37:26.230Z,3.70
2023-03-23T23:42:28.206Z,3.43
2023-03-23T23:47:30.380Z,3.10
2023-03-23T23:52:32.316Z,3.33
2023-03-23T23:57:34.573Z,3.50
